sensor_id;sensor_type;location;lat;lon;timestamp;pressure;altitude;pressure_sealevel;temperature;humidity
9935;BME280;5006;41.828;23.478;2023-02-10T00:01:02;91625.03;;;3.40;44.28
9935;BME280;5006;41.828;23.478;2023-02-10T00:02:07;91626.13;;;3.48;43.68
9935;BME280;5006;41.828;23.478;2023-02-10T00:03:12;91629.38;;;3.19;44.13
9935;BME280;5006;41.828;23.478;2023-02-10T00:04:17;91623.31;;;2.63;45.44
9935;BME280;5006;41.828;23.478;2023-02-10T00:05:22;91625.13;;;3.10;44.34
9935;BME280;5006;41.828;23.478;2023-02-10T00:06:27;91618.44;;;3.04;45.23
9935;BME280;5006;41.828;23.478;2023-02-10T00:07:33;91626.91;;;2.75;46.23
9935;BME280;5006;41.828;23.478;2023-02-10T00:08:38;91617.19;;;3.18;45.06
9935;BME280;5006;41.828;23.478;2023-02-10T00:09:43;91622.94;;;3.03;44.58
9935;BME280;5006;41.828;23.478;2023-02-10T00:10:49;91624.50;;;3.13;44.14
9935;BME280;5006;41.828;23.478;2023-02-10T00:11:54;91623.09;;;2.98;44.95
9935;BME280;5006;41.828;23.478;2023-02-10T00:13:05;91626.22;;;3.00;44.54
9935;BME280;5006;41.828;23.478;2023-02-10T00:14:11;91623.09;;;2.98;45.04
9935;BME280;5006;41.828;23.478;2023-02-10T00:15:17;91622.59;;;2.88;45.05
9935;BME280;5006;41.828;23.478;2023-02-10T00:16:22;91619.34;;;2.99;44.62
9935;BME280;5006;41.828;23.478;2023-02-10T00:17:28;91620.16;;;3.08;44.92
9935;BME280;5006;41.828;23.478;2023-02-10T00:18:33;91622.63;;;3.05;44.44
9935;BME280;5006;41.828;23.478;2023-02-10T00:19:39;91619.59;;;2.72;46.18
9935;BME280;5006;41.828;23.478;2023-02-10T00:20:44;91620.41;;;2.42;46.74
9935;BME280;5006;41.828;23.478;2023-02-10T00:21:50;91618.25;;;2.14;47.62
9935;BME280;5006;41.828;23.478;2023-02-10T00:22:55;91623.72;;;2.17;47.32
9935;BME280;5006;41.828;23.478;2023-02-10T00:24:01;91617.25;;;2.02;47.08
9935;BME280;5006;41.828;23.478;2023-02-10T00:25:06;91623.25;;;2.54;46.47
9935;BME280;5006;41.828;23.478;2023-02-10T00:26:12;91618.16;;;2.27;47.07
9935;BME280;5006;41.828;23.478;2023-02-10T00:27:20;91622.16;;;1.86;47.92
9935;BME280;5006;41.828;23.478;2023-02-10T00:28:29;91623.16;;;1.77;47.26
9935;BME280;5006;41.828;23.478;2023-02-10T00:29:34;91622.78;;;2.22;48.12
9935;BME280;5006;41.828;23.478;2023-02-10T00:30:40;91624.84;;;2.25;48.43
9935;BME280;5006;41.828;23.478;2023-02-10T00:31:44;91619.28;;;2.35;47.99
9935;BME280;5006;41.828;23.478;2023-02-10T00:32:50;91619.91;;;2.79;48.21
9935;BME280;5006;41.828;23.478;2023-02-10T00:33:55;91621.34;;;2.85;47.42
9935;BME280;5006;41.828;23.478;2023-02-10T00:35:00;91624.25;;;2.67;47.18
9935;BME280;5006;41.828;23.478;2023-02-10T00:36:09;91622.09;;;2.77;46.68
9935;BME280;5006;41.828;23.478;2023-02-10T00:37:14;91621.00;;;2.39;47.30
9935;BME280;5006;41.828;23.478;2023-02-10T00:38:19;91620.47;;;2.59;47.40
9935;BME280;5006;41.828;23.478;2023-02-10T00:39:24;91624.63;;;2.13;48.82
9935;BME280;5006;41.828;23.478;2023-02-10T00:40:31;91613.81;;;2.62;48.51
9935;BME280;5006;41.828;23.478;2023-02-10T00:41:36;91620.94;;;2.53;48.21
9935;BME280;5006;41.828;23.478;2023-02-10T00:42:42;91616.56;;;2.18;48.12
9935;BME280;5006;41.828;23.478;2023-02-10T00:43:49;91616.91;;;2.55;47.96
9935;BME280;5006;41.828;23.478;2023-02-10T00:44:55;91611.56;;;2.16;47.60
9935;BME280;5006;41.828;23.478;2023-02-10T00:46:00;91614.53;;;2.54;46.93
9935;BME280;5006;41.828;23.478;2023-02-10T00:47:05;91603.38;;;2.26;47.20
9935;BME280;5006;41.828;23.478;2023-02-10T00:48:11;91602.44;;;2.31;47.88
9935;BME280;5006;41.828;23.478;2023-02-10T00:49:16;91603.22;;;2.70;47.76
9935;BME280;5006;41.828;23.478;2023-02-10T00:50:21;91611.22;;;2.40;48.25
9935;BME280;5006;41.828;23.478;2023-02-10T00:51:27;91604.28;;;2.22;48.47
9935;BME280;5006;41.828;23.478;2023-02-10T00:52:35;91605.06;;;1.92;48.19
9935;BME280;5006;41.828;23.478;2023-02-10T00:53:43;91607.75;;;2.01;48.44
9935;BME280;5006;41.828;23.478;2023-02-10T00:54:48;91600.19;;;2.46;47.58
9935;BME280;5006;41.828;23.478;2023-02-10T00:55:54;91603.97;;;2.62;47.75
9935;BME280;5006;41.828;23.478;2023-02-10T00:56:59;91602.91;;;1.72;47.76
9935;BME280;5006;41.828;23.478;2023-02-10T00:58:05;91599.00;;;1.48;47.83
9935;BME280;5006;41.828;23.478;2023-02-10T00:59:13;91599.00;;;1.70;48.38
9935;BME280;5006;41.828;23.478;2023-02-10T01:00:19;91598.53;;;2.28;46.92
9935;BME280;5006;41.828;23.478;2023-02-10T01:01:24;91603.94;;;2.54;46.32
9935;BME280;5006;41.828;23.478;2023-02-10T01:02:29;91598.44;;;2.89;45.14
9935;BME280;5006;41.828;23.478;2023-02-10T01:03:35;91591.31;;;3.15;43.92
9935;BME280;5006;41.828;23.478;2023-02-10T01:04:41;91596.31;;;3.76;43.64
9935;BME280;5006;41.828;23.478;2023-02-10T01:05:47;91598.03;;;3.47;43.25
9935;BME280;5006;41.828;23.478;2023-02-10T01:06:54;91599.22;;;4.09;43.08
9935;BME280;5006;41.828;23.478;2023-02-10T01:07:59;91593.84;;;4.34;43.00
9935;BME280;5006;41.828;23.478;2023-02-10T01:09:05;91593.25;;;4.28;43.09
9935;BME280;5006;41.828;23.478;2023-02-10T01:10:10;91592.69;;;4.06;42.85
9935;BME280;5006;41.828;23.478;2023-02-10T01:11:15;91587.88;;;3.83;42.77
9935;BME280;5006;41.828;23.478;2023-02-10T01:12:21;91597.56;;;3.70;42.67
9935;BME280;5006;41.828;23.478;2023-02-10T01:13:26;91596.47;;;3.20;44.19
9935;BME280;5006;41.828;23.478;2023-02-10T01:14:34;91592.09;;;3.07;44.72
9935;BME280;5006;41.828;23.478;2023-02-10T01:15:41;91596.44;;;3.12;44.99
9935;BME280;5006;41.828;23.478;2023-02-10T01:16:47;91594.75;;;2.51;45.32
9935;BME280;5006;41.828;23.478;2023-02-10T01:17:52;91590.06;;;3.13;45.27
9935;BME280;5006;41.828;23.478;2023-02-10T01:18:58;91591.19;;;2.56;46.02
9935;BME280;5006;41.828;23.478;2023-02-10T01:20:04;91590.59;;;2.28;46.90
9935;BME280;5006;41.828;23.478;2023-02-10T01:21:14;91593.78;;;2.39;46.88
9935;BME280;5006;41.828;23.478;2023-02-10T01:22:21;91591.28;;;2.42;46.78
9935;BME280;5006;41.828;23.478;2023-02-10T01:23:26;91589.34;;;2.17;47.35
9935;BME280;5006;41.828;23.478;2023-02-10T01:24:31;91590.38;;;1.56;47.88
9935;BME280;5006;41.828;23.478;2023-02-10T01:25:38;91584.78;;;2.09;46.90
9935;BME280;5006;41.828;23.478;2023-02-10T01:26:42;91587.13;;;2.11;47.36
9935;BME280;5006;41.828;23.478;2023-02-10T01:27:50;91589.50;;;2.29;46.63
9935;BME280;5006;41.828;23.478;2023-02-10T01:28:55;91593.09;;;2.64;46.44
9935;BME280;5006;41.828;23.478;2023-02-10T01:30:01;91586.47;;;2.92;45.96
9935;BME280;5006;41.828;23.478;2023-02-10T01:31:07;91587.94;;;2.20;46.59
9935;BME280;5006;41.828;23.478;2023-02-10T01:32:14;91582.59;;;2.50;45.73
9935;BME280;5006;41.828;23.478;2023-02-10T01:33:19;91581.34;;;3.21;45.01
9935;BME280;5006;41.828;23.478;2023-02-10T01:34:25;91578.22;;;3.19;45.02
9935;BME280;5006;41.828;23.478;2023-02-10T01:35:31;91576.22;;;2.51;45.71
9935;BME280;5006;41.828;23.478;2023-02-10T01:36:36;91580.38;;;3.00;45.39
9935;BME280;5006;41.828;23.478;2023-02-10T01:37:41;91581.59;;;2.77;45.79
9935;BME280;5006;41.828;23.478;2023-02-10T01:38:46;91579.91;;;2.98;45.65
9935;BME280;5006;41.828;23.478;2023-02-10T01:39:51;91580.38;;;2.91;45.80
9935;BME280;5006;41.828;23.478;2023-02-10T01:40:57;91577.19;;;2.55;46.38
9935;BME280;5006;41.828;23.478;2023-02-10T01:42:02;91580.06;;;2.84;45.90
9935;BME280;5006;41.828;23.478;2023-02-10T01:43:13;91579.44;;;2.87;45.88
9935;BME280;5006;41.828;23.478;2023-02-10T01:46:02;91577.44;;;3.18;45.66
9935;BME280;5006;41.828;23.478;2023-02-10T01:47:07;91572.47;;;3.17;45.07
9935;BME280;5006;41.828;23.478;2023-02-10T01:48:14;91565.44;;;3.04;44.91
9935;BME280;5006;41.828;23.478;2023-02-10T01:49:21;91570.56;;;3.09;45.29
9935;BME280;5006;41.828;23.478;2023-02-10T01:50:30;91566.56;;;3.45;44.74
9935;BME280;5006;41.828;23.478;2023-02-10T01:51:38;91570.09;;;2.90;45.19
9935;BME280;5006;41.828;23.478;2023-02-10T01:52:47;91567.78;;;3.22;44.85
9935;BME280;5006;41.828;23.478;2023-02-10T01:53:52;91575.38;;;2.81;44.77
9935;BME280;5006;41.828;23.478;2023-02-10T01:55:00;91572.56;;;2.86;45.06
9935;BME280;5006;41.828;23.478;2023-02-10T01:56:26;91566.69;;;3.15;44.34
9935;BME280;5006;41.828;23.478;2023-02-10T01:57:33;91565.53;;;2.73;44.21
9935;BME280;5006;41.828;23.478;2023-02-10T01:58:39;91568.72;;;3.18;44.26
9935;BME280;5006;41.828;23.478;2023-02-10T01:59:46;91574.31;;;3.08;44.28
9935;BME280;5006;41.828;23.478;2023-02-10T02:00:51;91572.41;;;2.83;44.42
9935;BME280;5006;41.828;23.478;2023-02-10T02:01:59;91565.59;;;3.07;43.54
9935;BME280;5006;41.828;23.478;2023-02-10T02:03:08;91566.53;;;3.11;43.48
9935;BME280;5006;41.828;23.478;2023-02-10T02:04:15;91569.63;;;2.96;43.32
9935;BME280;5006;41.828;23.478;2023-02-10T02:05:28;91564.97;;;3.19;42.96
9935;BME280;5006;41.828;23.478;2023-02-10T02:06:35;91562.78;;;3.12;43.39
9935;BME280;5006;41.828;23.478;2023-02-10T02:07:40;91560.47;;;3.19;43.42
9935;BME280;5006;41.828;23.478;2023-02-10T02:08:48;91559.69;;;3.27;43.60
9935;BME280;5006;41.828;23.478;2023-02-10T02:09:55;91557.81;;;3.53;43.47
9935;BME280;5006;41.828;23.478;2023-02-10T02:11:15;91555.31;;;3.48;43.75
9935;BME280;5006;41.828;23.478;2023-02-10T02:12:29;91561.81;;;2.83;44.29
9935;BME280;5006;41.828;23.478;2023-02-10T02:14:07;91560.34;;;2.60;44.65
9935;BME280;5006;41.828;23.478;2023-02-10T02:15:22;91558.41;;;3.25;43.68
9935;BME280;5006;41.828;23.478;2023-02-10T02:16:41;91561.06;;;3.16;42.97
9935;BME280;5006;41.828;23.478;2023-02-10T02:17:55;91558.59;;;3.28;42.67
9935;BME280;5006;41.828;23.478;2023-02-10T02:19:17;91558.88;;;3.10;42.66
9935;BME280;5006;41.828;23.478;2023-02-10T02:20:48;91559.84;;;2.41;43.40
9935;BME280;5006;41.828;23.478;2023-02-10T02:22:26;91561.69;;;2.40;44.12
9935;BME280;5006;41.828;23.478;2023-02-10T02:23:48;91551.31;;;2.61;44.05
9935;BME280;5006;41.828;23.478;2023-02-10T02:25:05;91553.28;;;2.94;43.43
9935;BME280;5006;41.828;23.478;2023-02-10T02:28:23;91544.53;;;2.94;44.23
9935;BME280;5006;41.828;23.478;2023-02-10T02:29:49;91551.38;;;2.69;43.63
9935;BME280;5006;41.828;23.478;2023-02-10T02:31:27;91543.38;;;2.61;44.90
9935;BME280;5006;41.828;23.478;2023-02-10T02:32:34;91544.69;;;2.33;44.98
9935;BME280;5006;41.828;23.478;2023-02-10T02:33:43;91548.16;;;2.33;45.46
9935;BME280;5006;41.828;23.478;2023-02-10T02:34:56;91549.75;;;2.51;44.71
9935;BME280;5006;41.828;23.478;2023-02-10T02:36:08;91548.34;;;2.45;44.92
9935;BME280;5006;41.828;23.478;2023-02-10T02:37:18;91543.63;;;2.42;44.66
9935;BME280;5006;41.828;23.478;2023-02-10T02:38:24;91548.25;;;2.28;44.57
9935;BME280;5006;41.828;23.478;2023-02-10T02:39:32;91542.44;;;2.09;44.45
9935;BME280;5006;41.828;23.478;2023-02-10T02:40:37;91539.53;;;2.19;44.58
9935;BME280;5006;41.828;23.478;2023-02-10T02:41:42;91541.22;;;2.15;44.82
9935;BME280;5006;41.828;23.478;2023-02-10T02:42:47;91544.41;;;2.34;45.15
9935;BME280;5006;41.828;23.478;2023-02-10T02:43:54;91540.44;;;2.15;45.17
9935;BME280;5006;41.828;23.478;2023-02-10T02:45:03;91540.19;;;1.64;46.08
9935;BME280;5006;41.828;23.478;2023-02-10T02:46:12;91536.31;;;2.01;45.74
9935;BME280;5006;41.828;23.478;2023-02-10T02:47:48;91544.19;;;1.84;46.16
9935;BME280;5006;41.828;23.478;2023-02-10T02:49:04;91536.38;;;1.79;45.86
9935;BME280;5006;41.828;23.478;2023-02-10T02:50:22;91537.63;;;2.11;45.08
9935;BME280;5006;41.828;23.478;2023-02-10T02:51:36;91547.97;;;1.91;45.32
9935;BME280;5006;41.828;23.478;2023-02-10T02:52:56;91537.38;;;2.30;45.09
9935;BME280;5006;41.828;23.478;2023-02-10T02:54:10;91541.41;;;2.27;44.83
9935;BME280;5006;41.828;23.478;2023-02-10T02:55:23;91538.69;;;2.49;44.42
9935;BME280;5006;41.828;23.478;2023-02-10T02:56:37;91540.81;;;2.30;44.23
9935;BME280;5006;41.828;23.478;2023-02-10T02:57:47;91532.97;;;2.17;43.98
9935;BME280;5006;41.828;23.478;2023-02-10T02:58:57;91533.44;;;1.80;44.40
9935;BME280;5006;41.828;23.478;2023-02-10T03:00:09;91534.91;;;1.95;44.64
9935;BME280;5006;41.828;23.478;2023-02-10T03:01:19;91538.06;;;2.05;44.02
9935;BME280;5006;41.828;23.478;2023-02-10T03:02:29;91534.47;;;2.01;44.25
9935;BME280;5006;41.828;23.478;2023-02-10T03:03:36;91546.19;;;2.08;44.03
9935;BME280;5006;41.828;23.478;2023-02-10T03:04:45;91548.97;;;1.73;44.83
9935;BME280;5006;41.828;23.478;2023-02-10T03:05:52;91546.00;;;1.75;44.87
9935;BME280;5006;41.828;23.478;2023-02-10T03:06:57;91545.50;;;1.95;45.04
9935;BME280;5006;41.828;23.478;2023-02-10T03:08:03;91545.38;;;2.08;44.91
9935;BME280;5006;41.828;23.478;2023-02-10T03:09:09;91544.19;;;2.14;44.48
9935;BME280;5006;41.828;23.478;2023-02-10T03:10:15;91542.69;;;2.00;44.25
9935;BME280;5006;41.828;23.478;2023-02-10T03:11:20;91550.53;;;1.74;44.09
9935;BME280;5006;41.828;23.478;2023-02-10T03:12:25;91544.53;;;1.91;43.93
9935;BME280;5006;41.828;23.478;2023-02-10T03:13:30;91549.03;;;1.90;43.59
9935;BME280;5006;41.828;23.478;2023-02-10T03:14:36;91548.09;;;1.86;44.08
9935;BME280;5006;41.828;23.478;2023-02-10T03:15:41;91551.44;;;1.48;44.31
9935;BME280;5006;41.828;23.478;2023-02-10T03:16:47;91552.03;;;1.23;45.40
9935;BME280;5006;41.828;23.478;2023-02-10T03:17:52;91552.34;;;0.86;45.70
9935;BME280;5006;41.828;23.478;2023-02-10T03:18:59;91553.56;;;1.37;45.20
9935;BME280;5006;41.828;23.478;2023-02-10T03:20:05;91559.84;;;1.50;44.69
9935;BME280;5006;41.828;23.478;2023-02-10T03:21:10;91556.38;;;1.71;44.37
9935;BME280;5006;41.828;23.478;2023-02-10T03:22:15;91556.25;;;1.46;45.20
9935;BME280;5006;41.828;23.478;2023-02-10T03:23:20;91543.81;;;1.02;46.41
9935;BME280;5006;41.828;23.478;2023-02-10T03:24:25;91548.78;;;1.26;46.41
9935;BME280;5006;41.828;23.478;2023-02-10T03:25:31;91549.44;;;0.87;46.89
9935;BME280;5006;41.828;23.478;2023-02-10T03:26:36;91548.91;;;1.21;47.08
9935;BME280;5006;41.828;23.478;2023-02-10T03:27:42;91547.94;;;1.39;47.09
9935;BME280;5006;41.828;23.478;2023-02-10T03:28:46;91546.75;;;1.23;46.34
9935;BME280;5006;41.828;23.478;2023-02-10T03:29:52;91549.97;;;0.98;47.67
9935;BME280;5006;41.828;23.478;2023-02-10T03:30:57;91540.13;;;1.12;47.54
9935;BME280;5006;41.828;23.478;2023-02-10T03:32:02;91544.34;;;1.13;47.63
9935;BME280;5006;41.828;23.478;2023-02-10T03:33:09;91545.38;;;1.25;47.82
9935;BME280;5006;41.828;23.478;2023-02-10T03:34:16;91544.34;;;1.13;48.19
9935;BME280;5006;41.828;23.478;2023-02-10T03:35:21;91541.41;;;1.14;47.75
9935;BME280;5006;41.828;23.478;2023-02-10T03:36:27;91540.25;;;1.51;47.20
9935;BME280;5006;41.828;23.478;2023-02-10T03:37:33;91541.22;;;1.55;47.49
9935;BME280;5006;41.828;23.478;2023-02-10T03:38:38;91541.31;;;2.02;45.98
9935;BME280;5006;41.828;23.478;2023-02-10T03:39:42;91539.31;;;2.08;46.12
9935;BME280;5006;41.828;23.478;2023-02-10T03:40:49;91534.88;;;1.86;45.28
9935;BME280;5006;41.828;23.478;2023-02-10T03:41:54;91532.44;;;1.68;46.64
9935;BME280;5006;41.828;23.478;2023-02-10T03:42:59;91529.84;;;2.71;44.39
9935;BME280;5006;41.828;23.478;2023-02-10T03:44:04;91534.78;;;2.47;44.08
9935;BME280;5006;41.828;23.478;2023-02-10T03:45:10;91528.47;;;2.82;43.28
9935;BME280;5006;41.828;23.478;2023-02-10T03:46:14;91530.47;;;2.68;43.37
9935;BME280;5006;41.828;23.478;2023-02-10T03:47:20;91535.81;;;1.60;45.22
9935;BME280;5006;41.828;23.478;2023-02-10T03:48:24;91536.47;;;1.96;44.67
9935;BME280;5006;41.828;23.478;2023-02-10T03:49:36;91538.16;;;1.39;45.99
9935;BME280;5006;41.828;23.478;2023-02-10T03:50:41;91531.38;;;1.25;46.67
9935;BME280;5006;41.828;23.478;2023-02-10T03:51:47;91538.00;;;1.36;45.25
9935;BME280;5006;41.828;23.478;2023-02-10T03:52:51;91534.44;;;1.62;45.33
9935;BME280;5006;41.828;23.478;2023-02-10T03:53:57;91528.94;;;1.81;44.66
9935;BME280;5006;41.828;23.478;2023-02-10T03:55:02;91534.72;;;1.91;44.28
9935;BME280;5006;41.828;23.478;2023-02-10T03:56:07;91528.38;;;2.01;44.00
9935;BME280;5006;41.828;23.478;2023-02-10T03:57:12;91532.16;;;1.78;43.90
9935;BME280;5006;41.828;23.478;2023-02-10T03:58:18;91530.81;;;1.89;44.46
9935;BME280;5006;41.828;23.478;2023-02-10T03:59:22;91526.22;;;1.72;44.45
9935;BME280;5006;41.828;23.478;2023-02-10T04:00:29;91522.69;;;1.77;44.99
9935;BME280;5006;41.828;23.478;2023-02-10T04:01:34;91528.78;;;1.55;45.57
9935;BME280;5006;41.828;23.478;2023-02-10T04:02:39;91529.91;;;1.63;45.14
9935;BME280;5006;41.828;23.478;2023-02-10T04:03:44;91531.66;;;1.45;46.21
9935;BME280;5006;41.828;23.478;2023-02-10T04:04:51;91532.47;;;1.46;46.17
9935;BME280;5006;41.828;23.478;2023-02-10T04:05:56;91531.38;;;1.47;46.08
9935;BME280;5006;41.828;23.478;2023-02-10T04:07:02;91529.78;;;1.37;46.81
9935;BME280;5006;41.828;23.478;2023-02-10T04:08:08;91532.22;;;1.34;46.26
9935;BME280;5006;41.828;23.478;2023-02-10T04:09:13;91532.25;;;1.64;45.99
9935;BME280;5006;41.828;23.478;2023-02-10T04:10:18;91527.63;;;1.70;45.45
9935;BME280;5006;41.828;23.478;2023-02-10T04:11:25;91524.09;;;1.74;45.75
9935;BME280;5006;41.828;23.478;2023-02-10T04:12:30;91526.63;;;1.88;44.55
9935;BME280;5006;41.828;23.478;2023-02-10T04:13:36;91526.13;;;1.77;44.79
9935;BME280;5006;41.828;23.478;2023-02-10T04:14:41;91529.41;;;1.83;44.33
9935;BME280;5006;41.828;23.478;2023-02-10T04:15:47;91532.13;;;1.69;44.60
9935;BME280;5006;41.828;23.478;2023-02-10T04:16:52;91531.50;;;1.42;45.56
9935;BME280;5006;41.828;23.478;2023-02-10T04:17:57;91531.75;;;1.32;45.58
9935;BME280;5006;41.828;23.478;2023-02-10T04:19:02;91538.09;;;1.53;45.15
9935;BME280;5006;41.828;23.478;2023-02-10T04:20:10;91523.91;;;1.71;44.89
9935;BME280;5006;41.828;23.478;2023-02-10T04:21:15;91531.88;;;1.79;44.25
9935;BME280;5006;41.828;23.478;2023-02-10T04:22:20;91533.88;;;1.52;44.99
9935;BME280;5006;41.828;23.478;2023-02-10T04:23:25;91538.41;;;1.51;44.80
9935;BME280;5006;41.828;23.478;2023-02-10T04:24:30;91533.53;;;1.67;44.36
9935;BME280;5006;41.828;23.478;2023-02-10T04:25:35;91533.44;;;1.80;43.91
9935;BME280;5006;41.828;23.478;2023-02-10T04:26:41;91532.31;;;1.51;44.07
9935;BME280;5006;41.828;23.478;2023-02-10T04:27:45;91533.03;;;0.99;44.39
9935;BME280;5006;41.828;23.478;2023-02-10T04:28:51;91532.59;;;1.19;44.29
9935;BME280;5006;41.828;23.478;2023-02-10T04:29:55;91526.50;;;1.40;44.01
9935;BME280;5006;41.828;23.478;2023-02-10T04:31:01;91523.44;;;0.81;45.83
9935;BME280;5006;41.828;23.478;2023-02-10T04:32:06;91519.63;;;1.09;45.65
9935;BME280;5006;41.828;23.478;2023-02-10T04:33:12;91521.13;;;1.01;46.94
9935;BME280;5006;41.828;23.478;2023-02-10T04:34:18;91521.47;;;0.86;47.51
9935;BME280;5006;41.828;23.478;2023-02-10T04:35:24;91522.03;;;0.48;48.06
9935;BME280;5006;41.828;23.478;2023-02-10T04:36:29;91520.06;;;0.67;48.98
9935;BME280;5006;41.828;23.478;2023-02-10T04:37:35;91520.50;;;1.04;47.96
9935;BME280;5006;41.828;23.478;2023-02-10T04:38:39;91520.16;;;1.19;47.83
9935;BME280;5006;41.828;23.478;2023-02-10T04:39:45;91512.56;;;0.82;47.64
9935;BME280;5006;41.828;23.478;2023-02-10T04:40:50;91515.28;;;1.13;47.66
9935;BME280;5006;41.828;23.478;2023-02-10T04:41:55;91519.84;;;1.21;46.55
9935;BME280;5006;41.828;23.478;2023-02-10T04:43:00;91511.22;;;1.07;47.17
9935;BME280;5006;41.828;23.478;2023-02-10T04:44:05;91513.81;;;0.98;47.61
9935;BME280;5006;41.828;23.478;2023-02-10T04:45:10;91518.78;;;1.22;47.11
9935;BME280;5006;41.828;23.478;2023-02-10T04:46:16;91518.31;;;1.20;47.23
9935;BME280;5006;41.828;23.478;2023-02-10T04:47:21;91512.09;;;1.46;46.87
9935;BME280;5006;41.828;23.478;2023-02-10T04:48:27;91515.75;;;1.37;46.83
9935;BME280;5006;41.828;23.478;2023-02-10T04:49:31;91516.56;;;1.37;46.81
9935;BME280;5006;41.828;23.478;2023-02-10T04:50:38;91512.38;;;1.67;45.94
9935;BME280;5006;41.828;23.478;2023-02-10T04:51:43;91509.81;;;1.31;46.76
9935;BME280;5006;41.828;23.478;2023-02-10T04:52:49;91517.19;;;0.77;47.75
9935;BME280;5006;41.828;23.478;2023-02-10T04:53:53;91518.53;;;1.10;47.82
9935;BME280;5006;41.828;23.478;2023-02-10T04:54:58;91513.72;;;1.56;46.92
9935;BME280;5006;41.828;23.478;2023-02-10T04:56:04;91518.72;;;1.66;46.44
9935;BME280;5006;41.828;23.478;2023-02-10T04:57:10;91516.41;;;1.42;46.29
9935;BME280;5006;41.828;23.478;2023-02-10T04:58:15;91518.88;;;1.39;46.26
9935;BME280;5006;41.828;23.478;2023-02-10T04:59:20;91513.28;;;1.93;45.85
9935;BME280;5006;41.828;23.478;2023-02-10T05:00:25;91516.09;;;1.66;46.17
9935;BME280;5006;41.828;23.478;2023-02-10T05:01:31;91523.13;;;2.09;45.59
9935;BME280;5006;41.828;23.478;2023-02-10T05:02:37;91518.94;;;1.78;45.86
9935;BME280;5006;41.828;23.478;2023-02-10T05:03:42;91525.69;;;1.31;46.28
9935;BME280;5006;41.828;23.478;2023-02-10T05:04:47;91526.69;;;0.64;47.21
9935;BME280;5006;41.828;23.478;2023-02-10T05:05:54;91522.88;;;0.08;48.47
9935;BME280;5006;41.828;23.478;2023-02-10T05:06:59;91524.22;;;-0.21;49.55
9935;BME280;5006;41.828;23.478;2023-02-10T05:08:04;91529.13;;;-0.28;49.24
9935;BME280;5006;41.828;23.478;2023-02-10T05:09:10;91532.63;;;-0.06;49.61
9935;BME280;5006;41.828;23.478;2023-02-10T05:10:15;91534.59;;;0.29;48.92
9935;BME280;5006;41.828;23.478;2023-02-10T05:11:20;91534.50;;;0.07;48.65
9935;BME280;5006;41.828;23.478;2023-02-10T05:12:25;91537.22;;;0.15;48.56
9935;BME280;5006;41.828;23.478;2023-02-10T05:13:31;91540.53;;;0.21;48.44
9935;BME280;5006;41.828;23.478;2023-02-10T05:14:35;91537.03;;;-0.02;48.17
9935;BME280;5006;41.828;23.478;2023-02-10T05:15:41;91544.41;;;-0.44;48.95
9935;BME280;5006;41.828;23.478;2023-02-10T05:16:46;91538.66;;;-0.46;49.40
9935;BME280;5006;41.828;23.478;2023-02-10T05:17:51;91542.97;;;-0.09;49.08
9935;BME280;5006;41.828;23.478;2023-02-10T05:18:56;91541.25;;;0.13;48.73
9935;BME280;5006;41.828;23.478;2023-02-10T05:20:02;91544.75;;;0.08;47.80
9935;BME280;5006;41.828;23.478;2023-02-10T05:21:10;91539.88;;;0.02;48.54
9935;BME280;5006;41.828;23.478;2023-02-10T05:22:16;91535.16;;;0.75;48.04
9935;BME280;5006;41.828;23.478;2023-02-10T05:23:21;91547.53;;;0.66;47.03
9935;BME280;5006;41.828;23.478;2023-02-10T05:24:26;91550.44;;;1.00;46.95
9935;BME280;5006;41.828;23.478;2023-02-10T05:25:31;91543.25;;;1.58;45.61
9935;BME280;5006;41.828;23.478;2023-02-10T05:26:36;91542.00;;;1.55;45.44
9935;BME280;5006;41.828;23.478;2023-02-10T05:27:41;91547.16;;;1.91;44.65
9935;BME280;5006;41.828;23.478;2023-02-10T05:28:47;91544.94;;;2.14;44.32
9935;BME280;5006;41.828;23.478;2023-02-10T05:29:52;91546.66;;;1.58;44.77
9935;BME280;5006;41.828;23.478;2023-02-10T05:30:58;91546.50;;;2.15;44.12
9935;BME280;5006;41.828;23.478;2023-02-10T05:32:04;91551.19;;;2.18;43.96
9935;BME280;5006;41.828;23.478;2023-02-10T05:33:10;91549.38;;;2.36;43.53
9935;BME280;5006;41.828;23.478;2023-02-10T05:34:14;91550.03;;;2.03;44.02
9935;BME280;5006;41.828;23.478;2023-02-10T05:35:19;91553.44;;;2.33;43.76
9935;BME280;5006;41.828;23.478;2023-02-10T05:36:25;91556.56;;;2.35;43.53
9935;BME280;5006;41.828;23.478;2023-02-10T05:37:31;91556.84;;;2.34;43.53
9935;BME280;5006;41.828;23.478;2023-02-10T05:38:36;91558.16;;;2.14;43.64
9935;BME280;5006;41.828;23.478;2023-02-10T05:39:41;91559.09;;;2.10;43.61
9935;BME280;5006;41.828;23.478;2023-02-10T05:40:48;91563.75;;;1.74;44.09
9935;BME280;5006;41.828;23.478;2023-02-10T05:41:55;91554.38;;;1.99;43.84
9935;BME280;5006;41.828;23.478;2023-02-10T05:43:01;91553.47;;;2.03;43.82
9935;BME280;5006;41.828;23.478;2023-02-10T05:44:06;91559.00;;;1.63;44.06
9935;BME280;5006;41.828;23.478;2023-02-10T05:45:11;91555.72;;;1.88;44.12
9935;BME280;5006;41.828;23.478;2023-02-10T05:46:17;91561.63;;;1.85;44.50
9935;BME280;5006;41.828;23.478;2023-02-10T05:47:21;91561.78;;;2.18;43.90
9935;BME280;5006;41.828;23.478;2023-02-10T05:48:27;91562.09;;;1.87;43.81
9935;BME280;5006;41.828;23.478;2023-02-10T05:49:33;91564.94;;;1.68;44.05
9935;BME280;5006;41.828;23.478;2023-02-10T05:50:37;91556.56;;;2.05;44.47
9935;BME280;5006;41.828;23.478;2023-02-10T05:51:52;91559.16;;;2.27;44.09
9935;BME280;5006;41.828;23.478;2023-02-10T05:52:58;91563.94;;;2.16;43.73
9935;BME280;5006;41.828;23.478;2023-02-10T05:54:04;91566.75;;;1.90;44.02
9935;BME280;5006;41.828;23.478;2023-02-10T05:55:09;91563.09;;;1.99;43.89
9935;BME280;5006;41.828;23.478;2023-02-10T05:56:15;91562.47;;;2.02;44.26
9935;BME280;5006;41.828;23.478;2023-02-10T05:57:20;91565.97;;;2.11;45.00
9935;BME280;5006;41.828;23.478;2023-02-10T05:58:26;91562.13;;;1.95;44.87
9935;BME280;5006;41.828;23.478;2023-02-10T05:59:31;91565.84;;;1.64;44.95
9935;BME280;5006;41.828;23.478;2023-02-10T06:00:38;91565.06;;;1.63;45.65
9935;BME280;5006;41.828;23.478;2023-02-10T06:01:43;91578.00;;;1.95;45.97
9935;BME280;5006;41.828;23.478;2023-02-10T06:02:49;91570.22;;;2.29;44.56
9935;BME280;5006;41.828;23.478;2023-02-10T06:03:55;91568.84;;;2.31;44.37
9935;BME280;5006;41.828;23.478;2023-02-10T06:05:00;91572.03;;;2.59;43.56
9935;BME280;5006;41.828;23.478;2023-02-10T06:06:06;91576.88;;;2.18;44.64
9935;BME280;5006;41.828;23.478;2023-02-10T06:07:12;91579.19;;;2.11;45.35
9935;BME280;5006;41.828;23.478;2023-02-10T06:08:18;91576.03;;;2.48;44.95
9935;BME280;5006;41.828;23.478;2023-02-10T06:09:23;91573.94;;;2.19;44.66